Strona główna
METAR-TAF:

METAR-TAF

Lotnisko :

Port lotniczy St Mary’s

Scilly, Anglia

Szerokość geograficzna: 49-55N, Długość geograficzna: 006-18W, wysokość: 31 m

METAR: brakujący

czas: 15:48 (15:48 UTC)

Prognoza

Raport powstał 28 godziny i 54 minut temu, godzina 10:54 UTC
Prognoza ważna od 28 godzina 12 UTC do 28 godzina 18 UTC
Wiatr 14 kt od wschód
Widzialność 10 km lub więcej
Przerywane chmury na wysokości 1600 ft
Przejściowo
od 28 godzina 12 UTC do 28 godzina 18 UTC
Przerywane chmury na wysokości 800 ft
Prawdopodobieństwo 40%
od 28 godzina 12 UTC do 28 godzina 18 UTC
Widzialność: 8000 m

TAF: EGHE 281054Z 2812/2818 10014KT 9999 BKN016 TEMPO 2812/2818 BKN008 PROB40 2812/2818 8000

Obserwacja i prognoza pogody dla ponad 4000 lotnisk (raport METAR i TAF).

Dostępne stacje oznaczono żółtymi i czerwonymi punktami na mapie.

Najedź kursorem aby zobaczyć nazwę stacji.

Kliknij aby zobaczyć obserwacje i prognozy pogody.

Aby zmienić mapę: kliknij na zielony przycisk z czarnym krzyżykiem, aby powiększyć; na zielony przycisk z myślnikiem, aby pomniejszyć; na zielone strzałki, aby przejść do map sąsiednich.


METAR-TAF: